createdAt,value
2018-03-08T00:02:25.845Z,2.50
2018-03-08T00:04:56.353Z,3.03
2018-03-08T00:07:26.103Z,3.43
2018-03-08T00:09:57.022Z,2.50
2018-03-08T00:12:26.645Z,2.57
2018-03-08T00:14:57.280Z,2.47
2018-03-08T00:17:27.488Z,3.03
2018-03-08T00:19:57.163Z,3.30
2018-03-08T00:22:27.743Z,2.67
2018-03-08T00:24:57.318Z,2.23
2018-03-08T00:27:26.945Z,1.97
2018-03-08T00:29:56.675Z,2.70
2018-03-08T00:32:26.389Z,2.43
2018-03-08T00:34:55.930Z,2.53
2018-03-08T00:37:25.398Z,2.67
2018-03-08T00:39:55.102Z,2.00
2018-03-08T00:42:25.428Z,2.83
2018-03-08T00:44:55.838Z,2.13
2018-03-08T00:47:25.531Z,2.73
2018-03-08T00:49:55.063Z,3.37
2018-03-08T00:52:24.669Z,3.20
2018-03-08T00:54:55.186Z,2.30
2018-03-08T00:57:24.776Z,4.00
2018-03-08T00:59:54.371Z,2.53
2018-03-08T01:02:24.026Z,1.93
2018-03-08T01:04:53.801Z,3.00
2018-03-08T01:07:23.543Z,3.23
2018-03-08T01:09:53.286Z,1.60
2018-03-08T01:16:15.940Z,1.90
2018-03-08T01:18:45.516Z,2.30
2018-03-08T01:21:15.351Z,2.33
2018-03-08T01:23:46.163Z,1.93
2018-03-08T01:26:15.785Z,2.50
2018-03-08T01:28:45.521Z,2.43
2018-03-08T01:31:15.008Z,2.37
2018-03-08T01:33:45.093Z,2.87
2018-03-08T01:36:30.730Z,1.60
2018-03-08T01:39:00.494Z,2.47
2018-03-08T01:41:30.780Z,1.67
2018-03-08T01:44:01.384Z,2.60
2018-03-08T01:46:31.104Z,1.60
2018-03-08T01:49:00.718Z,1.50
2018-03-08T01:51:30.414Z,1.60
2018-03-08T01:54:00.440Z,1.87
2018-03-08T01:56:31.071Z,1.77
2018-03-08T01:59:01.547Z,1.40
2018-03-08T02:01:32.241Z,1.50
2018-03-08T02:04:03.449Z,2.10
2018-03-08T02:06:33.039Z,2.33
2018-03-08T02:09:03.545Z,1.73
2018-03-08T02:11:34.151Z,1.50
2018-03-08T02:14:03.960Z,1.90
2018-03-08T02:16:33.544Z,1.67
2018-03-08T02:19:03.086Z,3.43
2018-03-08T02:21:32.583Z,1.60
2018-03-08T02:24:02.541Z,1.50
2018-03-08T02:26:32.309Z,1.87
2018-03-08T02:29:02.673Z,1.70
2018-03-08T02:31:32.300Z,2.00
2018-03-08T02:34:03.567Z,1.67
2018-03-08T02:36:33.271Z,2.03
2018-03-08T02:39:03.016Z,1.77
2018-03-08T02:41:33.409Z,2.77
2018-03-08T02:44:04.172Z,1.73
2018-03-08T02:46:33.890Z,1.40
2018-03-08T02:49:03.711Z,2.03
2018-03-08T02:51:33.338Z,1.50
2018-03-08T02:54:02.819Z,1.30
2018-03-08T02:56:33.387Z,1.50
2018-03-08T02:59:04.281Z,1.77
2018-03-08T03:01:33.992Z,1.40
2018-03-08T03:04:04.903Z,1.30
2018-03-08T03:06:35.209Z,2.27
2018-03-08T03:09:05.784Z,1.83
2018-03-08T03:11:36.151Z,2.17
2018-03-08T03:14:06.666Z,1.77
2018-03-08T03:16:37.039Z,1.40
2018-03-08T03:19:06.970Z,1.60
2018-03-08T03:21:36.488Z,1.20
2018-03-08T03:24:06.907Z,1.70
2018-03-08T03:26:36.412Z,1.37
2018-03-08T03:29:06.241Z,1.27
2018-03-08T03:31:36.148Z,1.20
2018-03-08T03:34:05.722Z,1.20
2018-03-08T03:36:35.461Z,1.60
2018-03-08T03:39:05.732Z,1.23
2018-03-08T03:41:35.475Z,1.47
2018-03-08T03:44:05.166Z,1.53
2018-03-08T03:46:35.493Z,1.43
2018-03-08T03:49:05.455Z,1.40
2018-03-08T03:51:35.694Z,2.07
2018-03-08T03:54:05.615Z,1.10
2018-03-08T03:56:35.545Z,1.23
2018-03-08T03:59:06.449Z,1.20
2018-03-08T04:01:36.155Z,2.07
2018-03-08T04:04:05.867Z,2.30
2018-03-08T04:06:35.465Z,2.20
2018-03-08T04:09:05.258Z,2.87
2018-03-08T04:11:34.956Z,1.30
2018-03-08T04:14:04.715Z,1.07
2018-03-08T04:16:34.688Z,2.10
2018-03-08T04:19:05.435Z,1.30
2018-03-08T04:21:35.173Z,2.63
2018-03-08T04:24:05.688Z,1.40
2018-03-08T04:26:35.333Z,1.27
2018-03-08T04:29:04.882Z,1.33
2018-03-08T04:31:34.734Z,1.30
2018-03-08T04:34:04.841Z,1.97
2018-03-08T04:36:34.376Z,2.10
2018-03-08T04:39:04.945Z,1.20
2018-03-08T04:41:35.802Z,2.43
2018-03-08T04:44:05.354Z,1.93
2018-03-08T04:46:36.758Z,1.93
2018-03-08T04:49:06.495Z,1.10
2018-03-08T04:51:36.036Z,1.20
2018-03-08T04:54:06.331Z,1.80
2018-03-08T04:56:36.740Z,2.63
2018-03-08T04:59:07.161Z,2.23
2018-03-08T05:01:37.476Z,1.17
2018-03-08T05:04:07.057Z,1.40
2018-03-08T05:06:36.899Z,1.20
2018-03-08T05:09:06.553Z,2.10
2018-03-08T05:11:38.010Z,1.17
2018-03-08T05:14:07.687Z,1.23
2018-03-08T05:16:38.433Z,1.20
2018-03-08T05:19:08.402Z,1.13
2018-03-08T05:21:37.894Z,1.13
2018-03-08T05:24:07.360Z,1.30
2018-03-08T05:26:37.171Z,1.83
2018-03-08T05:29:06.693Z,1.53
2018-03-08T05:31:36.480Z,1.23
2018-03-08T05:34:06.910Z,1.43
2018-03-08T05:36:36.738Z,1.33
2018-03-08T05:39:06.327Z,1.30
2018-03-08T05:41:35.806Z,1.10
2018-03-08T05:44:06.842Z,2.13
2018-03-08T05:46:37.347Z,2.13
2018-03-08T05:49:06.886Z,1.20
2018-03-08T05:51:36.534Z,1.07
2018-03-08T05:54:06.198Z,1.10
2018-03-08T05:56:35.906Z,1.10
2018-03-08T05:59:05.397Z,1.70
2018-03-08T06:01:36.004Z,1.43
2018-03-08T06:04:05.585Z,1.30
2018-03-08T06:06:36.414Z,1.83
2018-03-08T06:09:08.458Z,2.37
2018-03-08T06:11:38.826Z,1.67
2018-03-08T06:14:10.243Z,1.73
2018-03-08T06:16:40.618Z,3.60
2018-03-08T06:19:12.814Z,3.30
2018-03-08T06:21:43.651Z,7.57
2018-03-08T06:24:14.843Z,5.07
2018-03-08T06:29:25.560Z,4.97
2018-03-08T06:34:37.349Z,3.60
2018-03-08T06:37:09.075Z,4.27
2018-03-08T06:39:43.051Z,7.43
2018-03-08T06:42:13.829Z,3.43
2018-03-08T06:44:45.218Z,4.17
2018-03-08T06:47:17.763Z,4.63
2018-03-08T06:49:48.422Z,3.77
2018-03-08T06:52:18.663Z,4.27
2018-03-08T06:54:48.314Z,4.20
2018-03-08T06:57:17.835Z,5.47
2018-03-08T06:59:47.428Z,4.57
2018-03-08T07:02:17.394Z,5.17
2018-03-08T07:04:48.951Z,5.37
2018-03-08T07:07:19.081Z,4.20
2018-03-08T07:09:50.572Z,5.37
2018-03-08T07:12:20.604Z,4.33
2018-03-08T07:14:50.749Z,2.93
2018-03-08T07:17:20.918Z,4.60
2018-03-08T07:19:51.339Z,3.67
2018-03-08T07:22:23.350Z,2.90
2018-03-08T07:24:53.172Z,4.17
2018-03-08T07:27:32.126Z,4.67
2018-03-08T07:30:03.836Z,5.93
2018-03-08T07:32:34.246Z,3.63
2018-03-08T07:35:05.552Z,7.27
2018-03-08T07:37:36.148Z,7.93
2018-03-08T07:40:08.621Z,7.93
2018-03-08T07:42:57.862Z,6.27
2018-03-08T07:45:32.364Z,5.60
2018-03-08T07:48:02.701Z,5.47
2018-03-08T07:50:32.934Z,5.43
2018-03-08T07:53:03.594Z,3.90
2018-03-08T07:55:33.321Z,5.53
2018-03-08T07:58:02.889Z,3.50
2018-03-08T08:00:32.930Z,5.70
2018-03-08T08:03:02.631Z,6.77
2018-03-08T08:05:50.487Z,5.10
2018-03-08T08:11:32.661Z,4.23
2018-03-08T08:14:02.417Z,6.23
2018-03-08T08:16:32.074Z,3.20
2018-03-08T08:19:02.046Z,3.27
2018-03-08T08:21:31.742Z,4.23
2018-03-08T08:24:01.346Z,5.77
2018-03-08T08:26:31.401Z,5.07
2018-03-08T08:29:01.132Z,7.10
2018-03-08T08:31:30.947Z,7.63
2018-03-08T08:34:00.749Z,7.70
2018-03-08T08:36:30.462Z,10.43
2018-03-08T08:39:01.279Z,7.10
2018-03-08T08:41:31.976Z,7.13
2018-03-08T08:50:25.939Z,8.17
2018-03-08T08:52:57.109Z,7.20
2018-03-08T08:55:30.100Z,5.97
2018-03-08T08:58:02.174Z,8.10
2018-03-08T09:00:32.909Z,5.43
2018-03-08T09:03:02.872Z,6.03
2018-03-08T09:05:32.537Z,3.13
2018-03-08T09:08:02.395Z,4.10
2018-03-08T09:10:33.097Z,4.77
2018-03-08T09:13:03.834Z,3.73
2018-03-08T09:15:33.376Z,4.17
2018-03-08T09:18:04.126Z,6.00
2018-03-08T09:20:34.490Z,9.80
2018-03-08T09:23:05.034Z,6.07
2018-03-08T09:25:34.766Z,3.93
2018-03-08T09:28:05.178Z,4.37
2018-03-08T09:30:34.764Z,6.40
2018-03-08T09:33:05.119Z,4.37
2018-03-08T09:35:35.015Z,4.90
2018-03-08T09:38:04.929Z,10.13
2018-03-08T09:40:35.319Z,5.67
2018-03-08T09:43:05.260Z,5.20
2018-03-08T09:45:35.238Z,6.90
2018-03-08T09:48:05.751Z,5.07
2018-03-08T09:50:35.418Z,6.13
2018-03-08T09:53:05.648Z,4.07
2018-03-08T09:55:35.977Z,5.20
2018-03-08T09:58:05.476Z,8.10
2018-03-08T10:00:35.232Z,4.33
2018-03-08T10:03:05.118Z,5.57
2018-03-08T10:05:36.030Z,3.90
2018-03-08T10:08:07.243Z,5.40
2018-03-08T10:10:37.695Z,2.90
2018-03-08T10:13:08.410Z,3.83
2018-03-08T10:15:39.659Z,5.77
2018-03-08T10:18:09.242Z,2.70
2018-03-08T10:20:38.952Z,1.97
2018-03-08T10:23:09.486Z,3.13
2018-03-08T10:25:39.155Z,5.37
2018-03-08T10:28:09.478Z,2.93
2018-03-08T10:30:39.815Z,4.30
2018-03-08T10:33:09.559Z,2.60
2018-03-08T10:35:39.366Z,2.80
2018-03-08T10:38:08.848Z,5.37
2018-03-08T10:40:45.376Z,2.77
2018-03-08T10:43:08.200Z,2.87
2018-03-08T10:45:37.751Z,3.77
2018-03-08T10:48:08.103Z,3.07
2018-03-08T10:50:38.481Z,3.87
2018-03-08T10:53:09.388Z,1.67
2018-03-08T10:55:39.676Z,4.30
2018-03-08T10:58:16.425Z,2.60
2018-03-08T11:00:54.636Z,3.53
2018-03-08T11:03:30.250Z,2.97
2018-03-08T14:21:42.030Z,8.73
2018-03-08T14:24:14.292Z,9.40
2018-03-08T14:26:45.593Z,6.50
2018-03-08T14:29:17.188Z,9.43
2018-03-08T14:31:49.206Z,11.37
2018-03-08T16:04:58.412Z,4.90
2018-03-08T16:20:25.546Z,4.82
2018-03-08T16:22:56.767Z,7.37
2018-03-08T16:25:27.339Z,4.50
2018-03-08T16:27:59.099Z,6.40
2018-03-08T16:30:29.419Z,4.77
2018-03-08T16:32:59.814Z,3.07
2018-03-08T16:35:32.294Z,4.53
2018-03-08T16:38:11.042Z,4.37
2018-03-08T16:40:43.227Z,6.13
2018-03-08T16:43:16.027Z,6.50
2018-03-08T16:45:54.126Z,5.93
2018-03-08T16:48:31.319Z,23.23
2018-03-08T16:51:07.253Z,10.37
2018-03-08T16:53:41.392Z,37.87
2018-03-08T16:56:22.361Z,20.87
2018-03-08T16:58:56.857Z,6.93
2018-03-08T17:01:33.450Z,5.77
2018-03-08T17:06:59.228Z,6.13
2018-03-08T17:09:31.248Z,4.23
2018-03-08T17:12:03.722Z,13.17
2018-03-08T17:14:36.379Z,6.63
2018-03-08T17:17:10.558Z,11.00
2018-03-08T17:19:46.399Z,7.80
2018-03-08T17:22:23.222Z,4.47
2018-03-08T17:24:56.911Z,33.23
2018-03-08T17:27:39.649Z,8.67
2018-03-08T17:33:08.793Z,8.60
2018-03-08T17:35:42.701Z,12.90
2018-03-08T17:38:18.166Z,7.20
2018-03-08T17:43:28.900Z,9.00
2018-03-08T17:46:03.055Z,9.20
2018-03-08T17:48:37.947Z,7.83
2018-03-08T17:51:29.014Z,8.50
2018-03-08T17:54:12.572Z,18.77
2018-03-08T17:56:59.319Z,11.03
2018-03-08T17:59:33.077Z,9.10
2018-03-08T18:02:08.512Z,19.57
2018-03-08T18:04:43.904Z,9.40
2018-03-08T18:07:17.826Z,9.07
2018-03-08T18:12:58.492Z,14.43
2018-03-08T18:15:40.880Z,19.30
2018-03-08T18:18:18.770Z,17.70
2018-03-08T18:20:55.692Z,8.73
2018-03-08T18:23:33.053Z,9.23
2018-03-08T18:26:21.893Z,16.97
2018-03-08T18:28:54.122Z,18.50
2018-03-08T18:31:30.363Z,11.20
2018-03-08T18:34:06.890Z,19.03
2018-03-08T18:36:42.870Z,16.27
2018-03-08T18:39:16.438Z,7.67
2018-03-08T18:41:51.220Z,20.30
2018-03-08T18:44:27.764Z,7.80
2018-03-08T18:47:04.185Z,15.03
2018-03-08T18:49:41.163Z,11.37
2018-03-08T18:52:18.758Z,11.07
2018-03-08T18:54:52.316Z,10.80
2018-03-08T18:57:29.728Z,8.63
2018-03-08T19:00:02.967Z,24.57
2018-03-08T19:02:38.408Z,17.57
2018-03-08T19:07:59.724Z,13.13
2018-03-08T19:10:33.869Z,14.97
2018-03-08T19:13:11.166Z,14.87
2018-03-08T19:15:46.572Z,17.80
2018-03-08T19:18:21.854Z,12.93
2018-03-08T19:20:57.267Z,15.10
2018-03-08T19:23:31.312Z,16.93
2018-03-08T19:26:07.921Z,11.27
2018-03-08T19:28:45.812Z,15.63
2018-03-08T19:31:16.513Z,14.00
2018-03-08T19:33:51.908Z,13.53
2018-03-08T19:36:30.870Z,18.87
2018-03-08T19:39:04.145Z,19.57
2018-03-08T19:41:37.293Z,13.17
2018-03-08T19:44:14.346Z,18.87
2018-03-08T19:46:50.951Z,16.77
